Time;durP1;ratioP1;P1;durP2;ratioP2;P2;SDS_P1;SDS_P2;PMS_P1;PMS_P2;Temp;Humidity;BMP_temperature;BMP_pressure;BME280_temperature;BME280_humidity;BME280_pressure;Samples;Min_cycle;Max_cycle;Signal;HPM_P1;HPM_P2
2022/08/13 00:01:37;;;;;;;4.22;2.60;;;25.60;86.30;;;;;;4990522;28;20209;-70
2022/08/13 00:04:05;;;;;;;3.40;3.10;;;25.50;86.50;;;;;;4990339;28;20225;-69
2022/08/13 00:09:24;;;;;;;3.42;2.97;;;25.50;86.80;;;;;;4987240;28;20211;-68
2022/08/13 00:14:40;;;;;;;3.20;2.85;;;25.40;87.00;;;;;;4989798;28;20284;-69
2022/08/13 00:17:12;;;;;;;2.75;2.55;;;25.40;87.30;;;;;;4989722;28;20202;-69
2022/08/13 00:19:41;;;;;;;3.75;2.65;;;25.30;87.50;;;;;;5004239;28;20198;-69
2022/08/13 00:22:09;;;;;;;4.05;2.65;;;25.30;87.80;;;;;;5009448;28;20212;-69
2022/08/13 00:24:38;;;;;;;3.80;3.05;;;25.20;87.80;;;;;;5009352;28;20209;-69
2022/08/13 00:27:05;;;;;;;3.35;2.67;;;25.20;88.00;;;;;;5009310;28;20221;-69
2022/08/13 00:29:32;;;;;;;5.68;2.78;;;25.20;88.20;;;;;;5007314;28;20337;-69
2022/08/13 00:31:59;;;;;;;2.75;2.55;;;25.20;88.40;;;;;;5008146;28;20665;-69
2022/08/13 00:34:27;;;;;;;4.75;2.72;;;25.20;88.50;;;;;;4988079;28;20230;-67
2022/08/13 00:36:54;;;;;;;3.03;2.53;;;25.10;88.50;;;;;;4989360;28;20214;-68
2022/08/13 00:39:21;;;;;;;5.07;2.83;;;25.10;88.30;;;;;;5008748;28;20214;-68
2022/08/13 00:41:49;;;;;;;4.65;2.70;;;25.10;88.20;;;;;;5000685;28;20250;-68
2022/08/13 00:44:18;;;;;;;4.68;2.88;;;25.10;87.90;;;;;;4989437;28;20216;-68
2022/08/13 00:46:46;;;;;;;4.72;2.75;;;25.10;87.80;;;;;;4988427;28;20210;-68
2022/08/13 00:49:13;;;;;;;3.53;3.20;;;25.10;87.80;;;;;;5001150;28;20219;-69
2022/08/13 00:51:42;;;;;;;8.20;3.15;;;25.10;87.80;;;;;;5008093;28;20210;-68
2022/08/13 00:54:12;;;;;;;5.97;2.97;;;25.10;87.80;;;;;;5008802;28;20235;-68
2022/08/13 00:56:39;;;;;;;4.35;2.92;;;25.00;87.70;;;;;;5008371;28;20267;-68
2022/08/13 00:59:12;;;;;;;11.77;3.22;;;25.00;87.70;;;;;;5008022;28;20206;-70
2022/08/13 01:01:39;;;;;;;3.97;2.72;;;25.00;87.80;;;;;;5002182;28;20193;-69
2022/08/13 01:04:07;;;;;;;2.83;2.63;;;25.00;87.90;;;;;;4988857;28;20210;-69
2022/08/13 01:06:35;;;;;;;7.18;2.67;;;25.00;88.00;;;;;;4988507;28;20665;-69
2022/08/13 01:09:02;;;;;;;3.85;3.30;;;25.00;88.00;;;;;;4988640;28;20621;-69
2022/08/13 01:11:33;;;;;;;3.50;3.00;;;24.90;88.10;;;;;;5004690;28;20205;-69
2022/08/13 01:14:07;;;;;;;4.45;2.75;;;24.90;88.20;;;;;;5007829;28;20303;-69
2022/08/13 01:16:36;;;;;;;5.82;3.10;;;24.90;88.40;;;;;;5008385;28;20193;-69
2022/08/13 01:19:06;;;;;;;5.57;3.00;;;24.90;88.70;;;;;;5006670;28;20217;-70
2022/08/13 01:21:38;;;;;;;4.72;3.22;;;24.90;89.00;;;;;;5007907;28;20303;-69
2022/08/13 01:24:06;;;;;;;4.10;2.75;;;24.80;89.00;;;;;;5008231;28;20210;-69
2022/08/13 01:26:33;;;;;;;5.15;3.15;;;24.80;89.30;;;;;;5007668;28;20570;-69
2022/08/13 01:29:04;;;;;;;4.22;2.90;;;24.80;89.40;;;;;;5008232;28;20217;-69
2022/08/13 01:31:32;;;;;;;3.58;3.28;;;24.80;89.60;;;;;;5007483;28;20189;-69
2022/08/13 01:34:00;;;;;;;4.25;2.85;;;24.70;89.80;;;;;;5007692;28;20783;-68
2022/08/13 01:36:28;;;;;;;3.25;2.95;;;24.70;90.00;;;;;;4988162;28;20803;-68
2022/08/13 01:39:01;;;;;;;4.65;2.63;;;24.60;90.00;;;;;;4988193;28;20215;-68
2022/08/13 01:41:28;;;;;;;4.38;2.90;;;24.60;90.10;;;;;;4991584;28;20224;-68
2022/08/13 01:44:00;;;;;;;3.53;3.15;;;24.60;90.20;;;;;;5008015;28;20301;-68
2022/08/13 01:46:27;;;;;;;4.43;2.63;;;24.60;90.20;;;;;;5007865;28;20671;-70
2022/08/13 01:51:38;;;;;;;5.15;3.00;;;24.50;90.30;;;;;;5003249;28;20309;-70
2022/08/13 01:54:09;;;;;;;6.97;3.08;;;24.50;90.30;;;;;;4988211;28;20239;-70
2022/08/13 01:56:36;;;;;;;7.40;3.20;;;24.40;90.40;;;;;;4989096;28;20209;-70
2022/08/13 01:59:04;;;;;;;3.17;2.95;;;24.40;90.50;;;;;;4992083;28;20329;-70
2022/08/13 02:01:32;;;;;;;3.13;2.92;;;24.40;90.70;;;;;;4992690;28;20583;-69
2022/08/13 02:04:01;;;;;;;3.72;2.97;;;24.40;90.80;;;;;;4992548;28;20573;-70
2022/08/13 02:06:29;;;;;;;5.10;3.10;;;24.30;90.80;;;;;;4992714;28;20280;-70
2022/08/13 02:08:59;;;;;;;3.35;3.05;;;24.30;90.80;;;;;;5005559;28;20206;-70
2022/08/13 02:11:28;;;;;;;5.20;3.13;;;24.30;90.70;;;;;;4995752;28;20198;-70
2022/08/13 02:13:56;;;;;;;5.78;2.70;;;24.30;90.70;;;;;;5011435;28;20240;-70
2022/08/13 02:16:23;;;;;;;4.05;2.85;;;24.30;90.80;;;;;;5011899;28;20201;-70
2022/08/13 02:18:53;;;;;;;5.28;3.10;;;24.30;90.90;;;;;;5011820;28;20209;-70
2022/08/13 02:21:22;;;;;;;3.10;2.72;;;24.30;90.80;;;;;;5011296;28;20205;-70
2022/08/13 02:23:56;;;;;;;4.10;2.70;;;24.30;90.80;;;;;;5011627;28;20216;-70
2022/08/13 02:26:24;;;;;;;5.20;2.92;;;24.30;90.80;;;;;;5011746;28;20197;-70
2022/08/13 02:28:52;;;;;;;5.25;2.90;;;24.20;90.80;;;;;;5011373;28;20214;-68
2022/08/13 02:31:19;;;;;;;3.22;2.67;;;24.20;90.90;;;;;;5010274;28;20213;-67
2022/08/13 02:33:46;;;;;;;4.15;2.70;;;24.20;90.90;;;;;;4991863;28;20242;-71
2022/08/13 02:36:14;;;;;;;2.97;2.70;;;24.20;91.00;;;;;;4991872;28;20254;-71
2022/08/13 02:38:42;;;;;;;8.10;3.00;;;24.10;91.10;;;;;;4991774;28;20272;-71
2022/08/13 02:43:59;;;;;;;5.20;3.08;;;24.10;91.30;;;;;;5010914;28;20197;-69
2022/08/13 02:46:27;;;;;;;3.42;2.95;;;24.10;91.30;;;;;;5011158;28;20197;-69
2022/08/13 02:48:53;;;;;;;5.63;2.92;;;24.10;91.30;;;;;;5010678;28;20692;-70
2022/08/13 02:51:20;;;;;;;7.32;3.05;;;24.00;91.40;;;;;;5009912;28;20218;-69
2022/08/13 02:53:47;;;;;;;3.90;3.28;;;24.00;91.50;;;;;;4990923;28;20233;-68
2022/08/13 02:56:14;;;;;;;4.97;3.22;;;24.00;91.50;;;;;;4990731;28;20206;-69
2022/08/13 02:58:41;;;;;;;5.30;3.10;;;24.00;91.50;;;;;;4991210;28;20216;-68
2022/08/13 03:01:11;;;;;;;4.47;3.10;;;24.00;91.60;;;;;;4990876;28;20238;-69
2022/08/13 03:03:38;;;;;;;6.68;2.88;;;24.00;91.70;;;;;;5010328;28;20612;-68
2022/08/13 03:06:08;;;;;;;8.07;3.05;;;23.90;91.70;;;;;;5010507;28;20209;-69
2022/08/13 03:08:37;;;;;;;3.38;2.80;;;23.90;91.80;;;;;;5009862;28;20238;-68
2022/08/13 03:11:07;;;;;;;4.63;3.03;;;23.90;91.80;;;;;;5010366;28;20205;-69
2022/08/13 03:13:36;;;;;;;4.32;2.83;;;23.90;91.70;;;;;;5009074;28;20260;-68
2022/08/13 03:16:07;;;;;;;6.47;3.15;;;23.80;91.60;;;;;;4990940;28;20260;-69
2022/08/13 03:18:35;;;;;;;7.43;3.45;;;23.80;91.60;;;;;;4997474;28;20212;-69
2022/08/13 03:21:05;;;;;;;5.63;3.10;;;23.80;91.60;;;;;;5010631;28;20223;-68
2022/08/13 03:23:34;;;;;;;3.78;3.05;;;23.80;91.60;;;;;;5007602;28;20288;-68
2022/08/13 03:26:01;;;;;;;7.10;3.28;;;23.80;91.50;;;;;;4990460;28;20264;-69
2022/08/13 03:28:27;;;;;;;4.97;3.30;;;23.80;91.50;;;;;;4990769;28;20212;-69
2022/08/13 03:30:54;;;;;;;3.35;3.10;;;23.80;91.60;;;;;;4990545;28;20210;-68
2022/08/13 03:33:21;;;;;;;5.85;2.90;;;23.80;91.60;;;;;;5006203;28;20867;-69
2022/08/13 03:35:50;;;;;;;3.20;2.92;;;23.70;91.70;;;;;;5009736;28;20236;-68
2022/08/13 03:38:16;;;;;;;7.70;3.42;;;23.70;91.80;;;;;;5010103;28;20292;-67
2022/08/13 03:41:11;;;;;;;9.63;3.30;;;23.70;91.80;;;;;;5001473;28;20202;-67
2022/08/13 03:43:42;;;;;;;4.18;3.45;;;23.70;91.80;;;;;;4991071;28;20309;-67
2022/08/13 03:46:10;;;;;;;6.25;3.17;;;23.70;91.90;;;;;;4990514;28;20194;-67
2022/08/13 03:48:37;;;;;;;5.85;3.25;;;23.70;92.00;;;;;;4997330;28;20217;-67
2022/08/13 03:51:09;;;;;;;5.63;2.70;;;23.60;92.00;;;;;;5009980;28;20591;-67
2022/08/13 03:53:36;;;;;;;4.20;3.20;;;23.60;92.10;;;;;;5009662;28;20213;-67
2022/08/13 03:56:05;;;;;;;3.22;2.85;;;23.60;92.10;;;;;;5009486;28;20213;-67
2022/08/13 03:58:33;;;;;;;4.32;2.78;;;23.60;92.20;;;;;;5009584;28;20197;-67
2022/08/13 04:01:01;;;;;;;6.50;3.03;;;23.60;92.20;;;;;;5009339;28;20236;-67
2022/08/13 04:03:30;;;;;;;3.50;3.20;;;23.40;92.30;;;;;;5009178;28;20307;-68
2022/08/13 04:06:06;;;;;;;4.05;3.47;;;23.30;92.60;;;;;;5009338;28;20217;-68
2022/08/13 04:08:36;;;;;;;6.30;3.22;;;23.20;92.80;;;;;;5009586;28;20205;-67
2022/08/13 04:11:08;;;;;;;6.05;3.10;;;23.30;92.80;;;;;;5008807;28;20197;-67
2022/08/13 04:13:37;;;;;;;6.95;3.35;;;23.30;92.90;;;;;;4989808;28;20230;-67
2022/08/13 04:16:09;;;;;;;4.60;3.40;;;23.30;93.00;;;;;;4989498;28;20294;-67
2022/08/13 04:18:36;;;;;;;3.70;3.40;;;23.30;93.20;;;;;;4996320;28;20728;-68
2022/08/13 04:21:08;;;;;;;5.35;3.42;;;23.30;93.40;;;;;;5008588;28;20205;-68
2022/08/13 04:23:39;;;;;;;3.47;3.22;;;23.30;93.70;;;;;;4989651;28;20206;-68
2022/08/13 04:26:08;;;;;;;4.53;3.25;;;23.30;93.90;;;;;;4989768;28;20655;-69
2022/08/13 04:28:35;;;;;;;4.60;3.75;;;23.30;93.90;;;;;;4989910;28;20257;-69
2022/08/13 04:31:05;;;;;;;3.42;3.08;;;23.30;94.00;;;;;;4989703;28;20206;-68
2022/08/13 04:33:31;;;;;;;4.78;3.15;;;23.30;94.10;;;;;;5007743;28;20209;-68
2022/08/13 04:35:58;;;;;;;4.13;3.30;;;23.30;94.10;;;;;;5008724;28;20703;-68
2022/08/13 04:38:25;;;;;;;4.90;3.58;;;23.30;94.10;;;;;;5009208;28;20201;-68
2022/08/13 04:40:54;;;;;;;3.58;3.28;;;23.30;94.00;;;;;;4998162;28;20230;-68
2022/08/13 04:43:21;;;;;;;4.25;3.70;;;23.30;94.00;;;;;;4989320;28;20202;-68
2022/08/13 04:45:48;;;;;;;6.05;3.45;;;23.30;93.90;;;;;;4989228;28;20249;-68
2022/08/13 04:48:16;;;;;;;7.93;3.75;;;23.30;94.00;;;;;;4992821;28;20209;-68
2022/08/13 04:50:44;;;;;;;7.10;3.53;;;23.20;94.10;;;;;;5008440;28;20212;-68
2022/08/13 04:53:21;;;;;;;3.42;3.10;;;23.20;94.20;;;;;;5007860;28;20206;-68
2022/08/13 04:55:48;;;;;;;7.07;4.05;;;23.20;94.10;;;;;;5008392;28;20231;-68
2022/08/13 04:58:17;;;;;;;3.70;3.40;;;23.20;94.20;;;;;;5008650;28;20222;-68
2022/08/13 05:00:45;;;;;;;4.05;3.47;;;23.20;94.50;;;;;;5007859;28;20242;-68
2022/08/13 05:03:14;;;;;;;7.25;3.90;;;23.20;94.80;;;;;;5007855;28;20205;-69
2022/08/13 05:05:42;;;;;;;7.15;3.55;;;23.20;94.90;;;;;;5008058;28;20716;-69
2022/08/13 05:08:10;;;;;;;6.13;3.72;;;23.20;95.00;;;;;;5008578;28;20577;-69
2022/08/13 05:10:38;;;;;;;10.55;3.80;;;23.20;95.00;;;;;;5008244;28;20228;-68
2022/08/13 05:13:07;;;;;;;6.25;3.40;;;23.20;95.10;;;;;;4989100;28;20229;-68
2022/08/13 05:15:39;;;;;;;4.00;3.60;;;23.20;95.10;;;;;;4988672;28;20226;-68
2022/08/13 05:18:06;;;;;;;5.65;3.70;;;23.20;95.20;;;;;;4991155;28;20194;-68
2022/08/13 05:20:32;;;;;;;8.15;3.95;;;23.20;95.10;;;;;;5008306;28;20225;-70
2022/08/13 05:23:05;;;;;;;6.45;3.60;;;23.20;95.10;;;;;;4991044;28;20198;-70
2022/08/13 05:25:32;;;;;;;5.70;3.67;;;23.20;95.20;;;;;;4988242;28;20649;-70
2022/08/13 05:27:59;;;;;;;4.47;3.67;;;23.20;95.30;;;;;;4988689;28;20212;-70
2022/08/13 05:30:26;;;;;;;9.25;3.88;;;23.20;95.30;;;;;;4988664;28;20206;-67
2022/08/13 05:32:55;;;;;;;6.43;3.72;;;23.20;95.20;;;;;;5003472;28;20233;-67
2022/08/13 05:35:22;;;;;;;7.78;3.85;;;23.20;95.10;;;;;;5008044;28;20279;-67
2022/08/13 05:37:49;;;;;;;4.15;3.75;;;23.20;95.00;;;;;;5008087;28;20292;-68
2022/08/13 05:40:16;;;;;;;6.60;4.13;;;23.30;95.10;;;;;;5007911;28;20206;-67
2022/08/13 05:42:43;;;;;;;6.03;3.90;;;23.30;95.20;;;;;;5007211;28;20212;-67
2022/08/13 05:45:10;;;;;;;5.57;3.90;;;23.30;95.10;;;;;;5008230;28;20577;-67
2022/08/13 05:47:38;;;;;;;4.47;3.70;;;23.30;95.20;;;;;;5007846;28;20206;-67
2022/08/13 05:50:08;;;;;;;4.32;3.83;;;23.30;95.30;;;;;;5007950;28;20227;-67
2022/08/13 05:52:35;;;;;;;6.25;3.72;;;23.30;95.50;;;;;;5007540;28;20708;-68
2022/08/13 05:55:04;;;;;;;8.32;4.20;;;23.30;95.60;;;;;;5007825;28;20597;-67
2022/08/13 05:57:31;;;;;;;9.27;4.18;;;23.30;95.60;;;;;;5007771;28;20235;-67
2022/08/13 06:05:27;;;;;;;3.60;3.33;;;23.40;95.60;;;;;;4988184;28;20201;-67
2022/08/13 06:07:56;;;;;;;6.80;4.05;;;23.40;95.20;;;;;;4987960;28;20209;-66
2022/08/13 06:10:25;;;;;;;7.72;4.18;;;23.50;95.10;;;;;;4988390;28;20217;-67
2022/08/13 06:12:52;;;;;;;6.57;4.15;;;23.50;95.00;;;;;;4988668;28;20236;-67
2022/08/13 06:15:22;;;;;;;5.40;4.15;;;23.50;95.10;;;;;;4988409;28;20234;-67
2022/08/13 06:17:50;;;;;;;7.25;4.20;;;23.50;95.10;;;;;;4988329;28;20729;-67
2022/08/13 06:20:20;;;;;;;4.80;4.15;;;23.60;95.20;;;;;;5007964;28;20205;-67
2022/08/13 06:22:52;;;;;;;5.38;3.72;;;23.70;95.20;;;;;;4990967;28;20210;-66
2022/08/13 06:25:19;;;;;;;4.82;3.55;;;23.80;95.50;;;;;;4988417;28;20681;-67
2022/08/13 06:27:46;;;;;;;5.85;4.43;;;23.90;95.00;;;;;;4988259;28;20207;-66
2022/08/13 06:30:17;;;;;;;5.40;3.85;;;23.90;94.80;;;;;;4989086;28;20206;-67
2022/08/13 06:32:44;;;;;;;5.22;3.80;;;24.00;94.60;;;;;;5006477;28;20197;-67
2022/08/13 06:35:11;;;;;;;4.45;3.97;;;24.00;94.90;;;;;;5007161;28;20244;-67
2022/08/13 06:37:41;;;;;;;6.80;3.55;;;24.10;94.60;;;;;;5001623;28;20609;-67
2022/08/13 06:40:12;;;;;;;4.43;4.03;;;24.10;94.70;;;;;;4987875;28;20217;-67
2022/08/13 06:42:43;;;;;;;4.57;4.00;;;24.10;94.70;;;;;;5000872;28;20212;-67
2022/08/13 06:45:10;;;;;;;7.90;4.15;;;24.20;94.80;;;;;;5009536;28;20579;-68
2022/08/13 06:47:38;;;;;;;4.20;3.80;;;24.20;94.80;;;;;;5002535;28;20202;-68
2022/08/13 06:50:09;;;;;;;8.70;4.55;;;24.30;94.80;;;;;;5005157;28;20210;-68
2022/08/13 06:52:37;;;;;;;7.43;4.07;;;24.30;94.90;;;;;;5003812;28;20292;-68
2022/08/13 06:55:06;;;;;;;5.25;4.32;;;24.30;94.90;;;;;;5002934;28;20343;-68
2022/08/13 06:57:36;;;;;;;4.95;3.78;;;24.30;94.90;;;;;;5006349;28;20208;-68
2022/08/13 07:00:04;;;;;;;6.50;4.65;;;24.30;94.90;;;;;;5015744;28;20244;-68
2022/08/13 07:02:34;;;;;;;6.75;4.00;;;24.40;94.90;;;;;;5003183;28;20201;-68
2022/08/13 07:05:01;;;;;;;9.15;3.92;;;24.40;94.90;;;;;;5013978;28;20673;-68
2022/08/13 07:07:29;;;;;;;7.55;3.95;;;24.40;94.90;;;;;;4989050;28;20618;-68
2022/08/13 07:09:56;;;;;;;9.82;4.20;;;24.40;94.80;;;;;;4989164;28;20285;-68
2022/08/13 07:12:24;;;;;;;8.43;3.95;;;24.40;94.70;;;;;;5000613;28;20225;-68
2022/08/13 07:14:53;;;;;;;4.65;3.80;;;24.40;94.70;;;;;;5009156;28;20284;-67
2022/08/13 07:17:21;;;;;;;10.30;4.07;;;24.40;94.60;;;;;;5010455;28;20354;-68
2022/08/13 07:19:48;;;;;;;5.72;4.25;;;24.40;94.60;;;;;;5007894;28;20209;-67
2022/08/13 07:22:16;;;;;;;6.57;4.05;;;24.50;94.50;;;;;;5008380;28;20202;-67
2022/08/13 07:24:45;;;;;;;8.13;3.90;;;24.50;94.50;;;;;;5009129;28;20205;-68
2022/08/13 07:27:12;;;;;;;6.30;3.72;;;24.60;94.50;;;;;;5005795;28;20289;-68
2022/08/13 07:29:39;;;;;;;10.90;3.83;;;24.60;94.50;;;;;;4989519;28;20245;-68
2022/08/13 07:32:07;;;;;;;5.05;3.92;;;24.60;94.60;;;;;;4998563;28;20202;-68
2022/08/13 07:34:36;;;;;;;5.47;3.95;;;24.70;94.70;;;;;;5009180;28;20197;-68
2022/08/13 07:37:04;;;;;;;9.13;4.32;;;24.70;94.60;;;;;;5009801;28;20696;-68
2022/08/13 07:39:31;;;;;;;4.40;4.00;;;24.70;94.50;;;;;;5010035;28;20210;-68
2022/08/13 07:41:59;;;;;;;13.35;4.38;;;24.80;94.50;;;;;;5008836;28;20201;-67
2022/08/13 07:44:26;;;;;;;4.38;4.00;;;24.80;94.50;;;;;;5009963;28;20587;-68
2022/08/13 07:46:56;;;;;;;4.55;3.72;;;24.80;94.50;;;;;;5009553;28;20215;-68
2022/08/13 07:49:26;;;;;;;4.60;3.72;;;24.80;94.70;;;;;;5010116;28;20774;-67
2022/08/13 07:51:55;;;;;;;11.38;4.55;;;24.80;94.60;;;;;;5009057;28;20259;-68
2022/08/13 07:54:22;;;;;;;47.08;7.45;;;24.90;94.60;;;;;;5009333;28;20727;-68
2022/08/13 07:56:53;;;;;;;12.23;4.47;;;25.00;94.40;;;;;;5009200;28;20328;-68
2022/08/13 07:59:20;;;;;;;13.50;3.97;;;25.00;94.30;;;;;;5009733;28;20241;-68
2022/08/13 08:01:49;;;;;;;4.72;3.70;;;25.00;94.20;;;;;;5009184;28;20204;-67
2022/08/13 08:04:18;;;;;;;8.02;4.32;;;25.10;94.10;;;;;;5009887;28;20336;-68
2022/08/13 08:06:47;;;;;;;7.55;3.67;;;25.20;94.20;;;;;;5009191;28;20672;-68
2022/08/13 08:09:17;;;;;;;11.00;4.10;;;25.30;94.40;;;;;;5009490;28;20216;-68
2022/08/13 08:14:30;;;;;;;5.43;3.80;;;25.50;94.60;;;;;;4989907;28;20214;-68
2022/08/13 08:16:58;;;;;;;4.35;3.95;;;25.60;94.10;;;;;;4989625;28;20241;-68
2022/08/13 08:19:25;;;;;;;4.97;3.42;;;25.60;94.10;;;;;;5002918;28;20739;-68
2022/08/13 08:21:56;;;;;;;4.35;3.90;;;25.60;93.90;;;;;;5008974;28;20576;-68
2022/08/13 08:24:24;;;;;;;4.07;3.67;;;25.60;93.70;;;;;;5009398;28;20198;-68
2022/08/13 08:26:53;;;;;;;3.85;3.38;;;25.60;93.80;;;;;;5009010;28;20229;-67
2022/08/13 08:29:20;;;;;;;6.57;3.80;;;25.60;93.80;;;;;;5009021;28;20672;-68
2022/08/13 08:31:49;;;;;;;4.18;3.63;;;25.60;93.80;;;;;;5001732;28;20208;-68
2022/08/13 08:34:18;;;;;;;4.20;3.90;;;25.60;93.90;;;;;;4999192;28;20287;-68
2022/08/13 08:36:46;;;;;;;18.25;4.68;;;25.60;93.80;;;;;;5009009;28;20233;-68
2022/08/13 08:44:56;;;;;;;5.75;3.95;;;25.60;94.20;;;;;;4964657;28;20202;-68
2022/08/13 08:47:28;;;;;;;6.32;3.50;;;25.60;94.30;;;;;;4989363;28;20214;-67
2022/08/13 08:49:57;;;;;;;3.65;3.35;;;25.60;94.40;;;;;;5006613;28;20213;-67
2022/08/13 08:53:19;;;;;;;8.48;3.75;;;25.60;94.40;;;;;;4995979;28;20256;-67
2022/08/13 08:55:16;;;;;;;6.35;4.40;;;25.60;94.40;;;;;;4988467;28;20210;-67
2022/08/13 08:57:45;;;;;;;6.22;4.22;;;25.60;94.50;;;;;;4989239;28;20238;-67
2022/08/13 09:00:15;;;;;;;17.88;5.13;;;25.60;94.50;;;;;;4997080;28;20738;-67
2022/08/13 09:02:43;;;;;;;11.75;4.10;;;25.60;94.40;;;;;;5008284;28;20673;-67
2022/08/13 09:05:14;;;;;;;33.13;6.53;;;25.60;94.30;;;;;;5008638;28;20268;-67
2022/08/13 09:07:45;;;;;;;20.00;5.68;;;25.60;94.40;;;;;;5007503;28;20204;-67
2022/08/13 09:10:14;;;;;;;12.57;4.13;;;25.60;94.40;;;;;;5000128;28;20646;-68
2022/08/13 09:12:44;;;;;;;7.65;3.83;;;25.60;94.50;;;;;;5008343;28;20229;-67
2022/08/13 09:15:12;;;;;;;7.05;4.13;;;25.60;94.50;;;;;;5008109;28;20668;-67
2022/08/13 09:17:39;;;;;;;8.27;3.70;;;25.60;94.60;;;;;;5005751;28;20214;-67
2022/08/13 09:20:12;;;;;;;4.38;3.97;;;25.60;94.60;;;;;;5006888;28;20209;-67
2022/08/13 09:22:41;;;;;;;3.88;3.58;;;25.70;94.50;;;;;;5008061;28;20851;-67
2022/08/13 09:25:09;;;;;;;8.50;4.20;;;25.70;94.40;;;;;;5008346;28;20263;-68
2022/08/13 09:27:38;;;;;;;27.60;5.68;;;25.80;94.30;;;;;;5008227;28;20212;-67
2022/08/13 09:30:06;;;;;;;6.13;4.07;;;25.80;94.20;;;;;;5000944;28;20544;-67
2022/08/13 09:32:33;;;;;;;8.70;3.72;;;25.90;94.00;;;;;;4988510;28;20214;-68
2022/08/13 09:35:01;;;;;;;10.48;4.30;;;25.90;93.90;;;;;;4988492;28;20241;-67
2022/08/13 09:37:29;;;;;;;8.80;3.85;;;26.00;93.80;;;;;;4988023;28;20226;-67
2022/08/13 09:40:02;;;;;;;6.57;3.97;;;26.00;93.70;;;;;;4993256;28;20212;-67
2022/08/13 09:42:35;;;;;;;16.48;4.85;;;26.10;93.80;;;;;;5007781;28;20256;-67
2022/08/13 09:45:04;;;;;;;5.50;4.15;;;26.10;93.90;;;;;;5007982;28;20201;-67
2022/08/13 09:47:32;;;;;;;5.18;3.80;;;26.10;94.00;;;;;;5007680;28;20582;-67
2022/08/13 09:49:59;;;;;;;5.07;4.55;;;26.10;94.10;;;;;;5002195;28;20213;-67
2022/08/13 09:52:26;;;;;;;4.55;4.10;;;26.20;94.10;;;;;;4987853;28;20206;-68
2022/08/13 09:54:54;;;;;;;7.20;4.70;;;26.20;94.10;;;;;;4987776;28;20202;-67
2022/08/13 09:57:21;;;;;;;5.13;4.60;;;26.30;94.10;;;;;;4987884;28;20324;-67
2022/08/13 09:59:48;;;;;;;7.40;4.57;;;26.30;94.20;;;;;;4988218;28;20262;-67
2022/08/13 10:02:16;;;;;;;6.50;5.22;;;26.30;94.30;;;;;;4987990;28;20256;-67
2022/08/13 10:04:44;;;;;;;8.40;5.55;;;26.40;94.50;;;;;;4988320;28;20560;-67
2022/08/13 10:07:12;;;;;;;5.57;5.03;;;26.40;94.50;;;;;;4988065;28;20712;-67
2022/08/13 10:09:39;;;;;;;16.35;6.65;;;26.40;94.50;;;;;;4994329;28;20255;-67
2022/08/13 10:12:09;;;;;;;8.43;5.65;;;26.40;94.60;;;;;;5007329;28;20221;-67
2022/08/13 10:14:36;;;;;;;6.13;5.50;;;26.30;94.50;;;;;;5007863;28;20219;-67
2022/08/13 10:17:04;;;;;;;6.05;5.35;;;26.40;94.50;;;;;;5007594;28;20237;-67
2022/08/13 10:19:32;;;;;;;6.15;5.22;;;26.40;94.50;;;;;;5002113;28;20241;-67
2022/08/13 10:21:59;;;;;;;5.60;5.15;;;26.40;94.60;;;;;;4991966;28;20646;-67
2022/08/13 10:24:26;;;;;;;5.70;5.30;;;26.40;94.70;;;;;;4991858;28;20285;-67
2022/08/13 10:26:53;;;;;;;9.60;6.05;;;26.40;94.70;;;;;;4991596;28;20304;-67
2022/08/13 10:29:20;;;;;;;7.30;5.10;;;26.40;94.70;;;;;;4994797;28;20237;-67
2022/08/13 10:31:47;;;;;;;6.18;5.00;;;26.40;94.70;;;;;;5011260;28;20205;-67
2022/08/13 10:34:13;;;;;;;6.20;5.00;;;26.40;94.70;;;;;;5011642;28;20197;-67
2022/08/13 10:36:42;;;;;;;6.38;4.90;;;26.40;94.70;;;;;;5011501;28;20225;-67
2022/08/13 10:39:09;;;;;;;6.07;4.40;;;26.40;94.40;;;;;;5010858;28;20209;-68
2022/08/13 10:41:36;;;;;;;4.93;4.53;;;26.40;94.40;;;;;;5010981;28;20223;-68
2022/08/13 10:44:03;;;;;;;7.00;5.10;;;26.40;94.40;;;;;;5010399;28;20682;-68
2022/08/13 10:46:31;;;;;;;8.20;5.18;;;26.40;94.50;;;;;;5011568;28;20222;-68
2022/08/13 10:48:59;;;;;;;4.90;4.38;;;26.40;94.40;;;;;;5006259;28;20594;-68
2022/08/13 10:51:27;;;;;;;4.13;3.40;;;26.40;94.40;;;;;;5001642;28;20213;-68
2022/08/13 10:53:59;;;;;;;5.47;4.50;;;26.40;94.10;;;;;;5004631;28;20205;-67
2022/08/13 10:56:28;;;;;;;5.40;4.10;;;26.40;93.50;;;;;;5003586;28;20854;-67
2022/08/13 10:58:56;;;;;;;6.03;3.33;;;26.30;93.60;;;;;;4991020;28;20363;-68
2022/08/13 11:01:24;;;;;;;3.30;3.10;;;26.30;93.30;;;;;;4991401;28;20202;-68
2022/08/13 11:03:55;;;;;;;4.05;3.75;;;26.30;93.20;;;;;;4991211;28;20297;-68
2022/08/13 11:06:24;;;;;;;17.85;4.63;;;26.30;93.00;;;;;;4990772;28;20195;-68
2022/08/13 11:08:54;;;;;;;4.45;3.83;;;26.30;93.80;;;;;;4991049;28;20210;-68
2022/08/13 11:11:23;;;;;;;9.07;4.57;;;26.30;93.90;;;;;;4990703;28;20230;-68
2022/08/13 11:13:49;;;;;;;12.77;4.72;;;26.30;94.30;;;;;;4999445;28;20233;-67
2022/08/13 11:18:57;;;;;;;5.53;4.32;;;26.30;94.50;;;;;;4998336;28;20307;-68
2022/08/13 11:21:25;;;;;;;4.82;4.40;;;26.30;95.20;;;;;;5009240;28;20232;-68
2022/08/13 11:23:53;;;;;;;5.20;4.25;;;26.40;95.30;;;;;;5006852;28;20564;-68
2022/08/13 11:26:20;;;;;;;5.85;4.20;;;26.30;95.50;;;;;;4996946;28;20218;-68
2022/08/13 11:28:48;;;;;;;4.03;3.80;;;26.30;95.60;;;;;;4988493;28;20218;-68
2022/08/13 11:31:15;;;;;;;6.25;3.35;;;26.30;95.20;;;;;;4988425;28;20206;-68
2022/08/13 11:33:42;;;;;;;5.03;3.45;;;26.30;95.00;;;;;;4988741;28;20209;-69
2022/08/13 11:36:09;;;;;;;3.88;3.55;;;26.30;95.10;;;;;;4999749;28;20546;-67
2022/08/13 11:38:36;;;;;;;4.65;3.42;;;26.30;95.10;;;;;;4996793;28;20669;-68
2022/08/13 11:41:07;;;;;;;3.97;3.40;;;26.30;95.20;;;;;;4990150;28;20207;-68
2022/08/13 11:43:35;;;;;;;3.60;3.38;;;26.30;95.20;;;;;;4990561;28;20260;-68
2022/08/13 11:46:05;;;;;;;5.07;3.10;;;26.20;95.30;;;;;;4990507;28;20241;-68
2022/08/13 11:48:32;;;;;;;8.80;3.70;;;26.30;95.40;;;;;;4996662;28;20213;-68
2022/08/13 11:50:59;;;;;;;3.78;3.42;;;26.30;95.50;;;;;;5009389;28;20288;-68
2022/08/13 11:53:27;;;;;;;5.25;3.55;;;26.30;95.60;;;;;;5009905;28;20293;-68
2022/08/13 11:55:53;;;;;;;5.60;3.85;;;26.30;95.60;;;;;;5009407;28;20652;-68
2022/08/13 11:58:20;;;;;;;3.78;3.40;;;26.30;95.50;;;;;;5009815;28;20241;-68
2022/08/13 12:00:48;;;;;;;7.72;4.13;;;26.40;95.60;;;;;;5009225;28;20276;-68
2022/08/13 12:03:16;;;;;;;3.78;3.53;;;26.40;95.60;;;;;;4992032;28;20209;-69
2022/08/13 12:05:42;;;;;;;5.28;3.75;;;26.40;95.60;;;;;;4990060;28;20214;-68
2022/08/13 12:08:16;;;;;;;6.53;3.75;;;26.30;95.80;;;;;;4989691;28;20206;-68
2022/08/13 12:10:44;;;;;;;12.02;4.13;;;26.40;95.80;;;;;;4989861;28;20237;-69
2022/08/13 12:13:11;;;;;;;4.85;4.25;;;26.40;95.90;;;;;;4991113;28;20210;-68
2022/08/13 12:15:38;;;;;;;7.43;4.22;;;26.30;96.40;;;;;;4993674;28;20218;-68
2022/08/13 12:18:06;;;;;;;4.43;4.05;;;26.30;97.00;;;;;;4992100;28;20242;-68
2022/08/13 12:20:34;;;;;;;6.55;4.30;;;26.30;97.20;;;;;;5009629;28;20220;-68
2022/08/13 12:23:03;;;;;;;4.75;4.20;;;26.30;97.30;;;;;;5009025;28;20212;-68
2022/08/13 12:25:32;;;;;;;5.10;4.25;;;26.30;97.40;;;;;;5004139;28;20233;-68
2022/08/13 12:28:14;;;;;;;6.97;4.65;;;26.30;97.50;;;;;;4989636;28;20202;-68
2022/08/13 12:30:42;;;;;;;19.00;5.75;;;26.20;97.90;;;;;;4989662;28;20198;-68
2022/08/13 12:33:09;;;;;;;6.05;3.97;;;26.20;97.70;;;;;;4989799;28;20210;-68
2022/08/13 12:35:38;;;;;;;4.82;4.40;;;26.20;98.10;;;;;;4989605;28;20300;-68
2022/08/13 12:38:10;;;;;;;4.53;4.13;;;26.20;98.20;;;;;;5000683;28;20229;-68
2022/08/13 12:40:38;;;;;;;4.93;4.45;;;26.10;98.40;;;;;;5008780;28;20209;-68
2022/08/13 12:43:06;;;;;;;4.80;4.50;;;26.20;98.70;;;;;;5008947;28;20201;-68
2022/08/13 12:45:33;;;;;;;9.95;4.57;;;26.20;98.80;;;;;;5008940;28;20296;-67
2022/08/13 12:48:05;;;;;;;4.47;4.18;;;26.20;98.60;;;;;;5008424;28;20209;-67
2022/08/13 12:50:32;;;;;;;4.53;4.22;;;26.20;98.40;;;;;;5007978;28;20210;-68
2022/08/13 12:53:00;;;;;;;6.32;3.90;;;26.20;98.00;;;;;;5008697;28;20212;-67
2022/08/13 12:55:27;;;;;;;6.55;4.22;;;26.20;97.70;;;;;;5008630;28;20217;-68
2022/08/13 12:57:53;;;;;;;4.50;4.20;;;26.30;97.60;;;;;;5008584;28;20259;-68
2022/08/13 13:00:20;;;;;;;5.65;4.60;;;26.30;97.20;;;;;;5008032;28;20728;-67
2022/08/13 13:02:47;;;;;;;4.30;4.00;;;26.30;97.20;;;;;;4993074;28;20574;-68
2022/08/13 13:05:15;;;;;;;6.50;4.20;;;26.30;97.10;;;;;;4988924;28;20202;-68
2022/08/13 13:07:42;;;;;;;5.65;4.20;;;26.30;97.10;;;;;;4988862;28;20210;-68
2022/08/13 13:10:10;;;;;;;4.57;4.10;;;26.40;97.10;;;;;;4988627;28;20210;-68
2022/08/13 13:12:38;;;;;;;8.68;4.78;;;26.40;96.90;;;;;;4988248;28;20225;-68
2022/08/13 13:15:06;;;;;;;7.80;4.10;;;26.40;96.80;;;;;;4989086;28;20202;-68
2022/08/13 13:17:33;;;;;;;8.38;4.07;;;26.40;96.70;;;;;;4988935;28;20240;-68
2022/08/13 13:20:01;;;;;;;5.40;4.78;;;26.40;96.70;;;;;;5006641;28;20213;-68